sensor_id;sensor_type;location;lat;lon;timestamp;temperature;humidity
25440;DHT22;13365;52.208;5.488;2023-03-26T00:02:05;14.30;99.90
25440;DHT22;13365;52.208;5.488;2023-03-26T00:04:31;14.30;99.90
25440;DHT22;13365;52.208;5.488;2023-03-26T00:06:58;14.40;99.90
25440;DHT22;13365;52.208;5.488;2023-03-26T00:09:24;14.40;99.90
25440;DHT22;13365;52.208;5.488;2023-03-26T00:11:51;14.40;99.90
25440;DHT22;13365;52.208;5.488;2023-03-26T00:14:16;14.40;99.90
25440;DHT22;13365;52.208;5.488;2023-03-26T00:16:43;14.30;99.90
25440;DHT22;13365;52.208;5.488;2023-03-26T00:19:09;14.20;99.90
25440;DHT22;13365;52.208;5.488;2023-03-26T00:21:35;14.30;99.90
25440;DHT22;13365;52.208;5.488;2023-03-26T00:24:09;14.40;99.90
25440;DHT22;13365;52.208;5.488;2023-03-26T00:26:36;14.40;99.90
25440;DHT22;13365;52.208;5.488;2023-03-26T00:29:03;14.40;99.90
25440;DHT22;13365;52.208;5.488;2023-03-26T00:31:29;14.40;99.90
25440;DHT22;13365;52.208;5.488;2023-03-26T00:33:55;14.40;99.90
25440;DHT22;13365;52.208;5.488;2023-03-26T00:36:23;14.40;99.90
25440;DHT22;13365;52.208;5.488;2023-03-26T00:38:50;14.40;99.90
25440;DHT22;13365;52.208;5.488;2023-03-26T00:41:18;14.40;99.90
25440;DHT22;13365;52.208;5.488;2023-03-26T00:43:48;14.40;99.90
25440;DHT22;13365;52.208;5.488;2023-03-26T00:46:15;14.30;99.90
25440;DHT22;13365;52.208;5.488;2023-03-26T00:48:42;14.30;99.90
25440;DHT22;13365;52.208;5.488;2023-03-26T00:51:09;14.20;99.90
25440;DHT22;13365;52.208;5.488;2023-03-26T00:53:35;14.20;99.90
25440;DHT22;13365;52.208;5.488;2023-03-26T00:56:04;14.10;99.90
25440;DHT22;13365;52.208;5.488;2023-03-26T00:58:30;14.00;99.90
25440;DHT22;13365;52.208;5.488;2023-03-26T01:01:03;14.10;99.90
25440;DHT22;13365;52.208;5.488;2023-03-26T01:03:31;14.00;99.90
25440;DHT22;13365;52.208;5.488;2023-03-26T01:06:04;14.00;99.90
25440;DHT22;13365;52.208;5.488;2023-03-26T01:08:47;13.90;99.90
25440;DHT22;13365;52.208;5.488;2023-03-26T01:11:20;13.90;99.90
25440;DHT22;13365;52.208;5.488;2023-03-26T01:13:49;13.80;99.90
25440;DHT22;13365;52.208;5.488;2023-03-26T01:16:40;13.80;99.90
25440;DHT22;13365;52.208;5.488;2023-03-26T01:19:16;13.70;99.90
25440;DHT22;13365;52.208;5.488;2023-03-26T01:21:45;13.70;99.90
25440;DHT22;13365;52.208;5.488;2023-03-26T01:24:11;13.60;99.90
25440;DHT22;13365;52.208;5.488;2023-03-26T01:40:45;13.30;99.90
25440;DHT22;13365;52.208;5.488;2023-03-26T01:43:38;13.30;99.90
25440;DHT22;13365;52.208;5.488;2023-03-26T01:46:07;13.40;99.90
25440;DHT22;13365;52.208;5.488;2023-03-26T01:48:36;13.40;99.90
25440;DHT22;13365;52.208;5.488;2023-03-26T01:51:04;13.40;99.90
25440;DHT22;13365;52.208;5.488;2023-03-26T01:53:31;13.40;99.90
25440;DHT22;13365;52.208;5.488;2023-03-26T01:58:36;13.60;99.90
25440;DHT22;13365;52.208;5.488;2023-03-26T02:03:47;13.70;99.90
25440;DHT22;13365;52.208;5.488;2023-03-26T02:06:36;13.70;99.90
25440;DHT22;13365;52.208;5.488;2023-03-26T02:09:06;13.80;99.90
25440;DHT22;13365;52.208;5.488;2023-03-26T02:11:36;13.80;99.90
25440;DHT22;13365;52.208;5.488;2023-03-26T02:14:04;13.80;99.90
25440;DHT22;13365;52.208;5.488;2023-03-26T02:16:31;13.90;99.90
25440;DHT22;13365;52.208;5.488;2023-03-26T02:18:56;13.90;99.90
25440;DHT22;13365;52.208;5.488;2023-03-26T02:21:24;14.00;99.90
25440;DHT22;13365;52.208;5.488;2023-03-26T02:23:53;14.10;99.90
25440;DHT22;13365;52.208;5.488;2023-03-26T02:26:28;14.10;99.90
25440;DHT22;13365;52.208;5.488;2023-03-26T02:28:55;14.00;99.90
25440;DHT22;13365;52.208;5.488;2023-03-26T02:31:21;14.00;99.90
25440;DHT22;13365;52.208;5.488;2023-03-26T02:33:50;14.00;99.90
25440;DHT22;13365;52.208;5.488;2023-03-26T02:36:16;14.10;99.90
25440;DHT22;13365;52.208;5.488;2023-03-26T02:38:43;14.20;99.90
25440;DHT22;13365;52.208;5.488;2023-03-26T02:41:09;14.10;99.90
25440;DHT22;13365;52.208;5.488;2023-03-26T02:43:35;14.20;99.90
25440;DHT22;13365;52.208;5.488;2023-03-26T02:46:00;14.00;99.90
25440;DHT22;13365;52.208;5.488;2023-03-26T02:48:26;14.10;99.90
25440;DHT22;13365;52.208;5.488;2023-03-26T02:50:52;14.10;99.90
25440;DHT22;13365;52.208;5.488;2023-03-26T02:53:19;14.00;99.90
25440;DHT22;13365;52.208;5.488;2023-03-26T02:55:46;14.00;99.90
25440;DHT22;13365;52.208;5.488;2023-03-26T02:58:12;14.10;99.90
25440;DHT22;13365;52.208;5.488;2023-03-26T03:00:44;14.10;99.90
25440;DHT22;13365;52.208;5.488;2023-03-26T03:03:11;14.20;99.90
25440;DHT22;13365;52.208;5.488;2023-03-26T03:05:36;14.30;99.90
25440;DHT22;13365;52.208;5.488;2023-03-26T03:08:07;14.30;99.90
25440;DHT22;13365;52.208;5.488;2023-03-26T03:10:33;14.20;99.90
25440;DHT22;13365;52.208;5.488;2023-03-26T03:12:59;14.30;99.90
25440;DHT22;13365;52.208;5.488;2023-03-26T03:15:25;14.30;99.90
25440;DHT22;13365;52.208;5.488;2023-03-26T03:17:50;14.40;99.90
25440;DHT22;13365;52.208;5.488;2023-03-26T03:20:16;14.40;99.90
25440;DHT22;13365;52.208;5.488;2023-03-26T03:22:42;14.40;99.90
25440;DHT22;13365;52.208;5.488;2023-03-26T03:25:08;14.50;99.90
25440;DHT22;13365;52.208;5.488;2023-03-26T03:27:39;14.50;99.90
25440;DHT22;13365;52.208;5.488;2023-03-26T03:30:06;14.50;99.90
25440;DHT22;13365;52.208;5.488;2023-03-26T03:32:32;14.40;99.90
25440;DHT22;13365;52.208;5.488;2023-03-26T03:34:57;14.30;99.90
25440;DHT22;13365;52.208;5.488;2023-03-26T03:37:23;14.40;99.90
25440;DHT22;13365;52.208;5.488;2023-03-26T03:39:50;14.30;99.90
25440;DHT22;13365;52.208;5.488;2023-03-26T03:42:16;14.30;99.90
25440;DHT22;13365;52.208;5.488;2023-03-26T03:44:41;14.30;99.90
25440;DHT22;13365;52.208;5.488;2023-03-26T03:47:07;14.50;99.90
25440;DHT22;13365;52.208;5.488;2023-03-26T03:49:34;14.50;99.90
25440;DHT22;13365;52.208;5.488;2023-03-26T03:52:00;14.50;99.90
25440;DHT22;13365;52.208;5.488;2023-03-26T03:54:25;14.50;99.90
25440;DHT22;13365;52.208;5.488;2023-03-26T03:56:52;14.50;99.90
25440;DHT22;13365;52.208;5.488;2023-03-26T03:59:18;14.50;99.90
25440;DHT22;13365;52.208;5.488;2023-03-26T04:01:44;14.60;99.90
25440;DHT22;13365;52.208;5.488;2023-03-26T04:04:11;14.70;99.90
25440;DHT22;13365;52.208;5.488;2023-03-26T04:06:36;14.80;99.90
25440;DHT22;13365;52.208;5.488;2023-03-26T04:09:03;14.70;99.90
25440;DHT22;13365;52.208;5.488;2023-03-26T04:11:28;14.70;99.90
25440;DHT22;13365;52.208;5.488;2023-03-26T04:13:54;14.70;99.90
25440;DHT22;13365;52.208;5.488;2023-03-26T04:16:20;14.80;99.90
25440;DHT22;13365;52.208;5.488;2023-03-26T04:18:45;14.80;99.90
25440;DHT22;13365;52.208;5.488;2023-03-26T04:21:11;14.80;99.90
25440;DHT22;13365;52.208;5.488;2023-03-26T04:23:40;14.70;99.90
25440;DHT22;13365;52.208;5.488;2023-03-26T04:26:07;14.60;99.90
25440;DHT22;13365;52.208;5.488;2023-03-26T04:28:44;14.60;99.90
25440;DHT22;13365;52.208;5.488;2023-03-26T04:31:15;14.60;99.90
25440;DHT22;13365;52.208;5.488;2023-03-26T04:33:45;14.70;99.90
25440;DHT22;13365;52.208;5.488;2023-03-26T04:36:15;14.60;99.90
25440;DHT22;13365;52.208;5.488;2023-03-26T04:38:43;14.60;99.90
25440;DHT22;13365;52.208;5.488;2023-03-26T04:41:11;14.70;99.90
25440;DHT22;13365;52.208;5.488;2023-03-26T04:43:37;14.80;99.90
25440;DHT22;13365;52.208;5.488;2023-03-26T04:46:12;14.80;99.90
25440;DHT22;13365;52.208;5.488;2023-03-26T04:48:37;14.70;99.90
25440;DHT22;13365;52.208;5.488;2023-03-26T04:51:04;14.70;99.90
25440;DHT22;13365;52.208;5.488;2023-03-26T04:53:34;14.70;99.90
25440;DHT22;13365;52.208;5.488;2023-03-26T04:56:11;14.60;99.90
25440;DHT22;13365;52.208;5.488;2023-03-26T04:58:37;14.50;99.90
25440;DHT22;13365;52.208;5.488;2023-03-26T05:01:04;14.50;99.90
25440;DHT22;13365;52.208;5.488;2023-03-26T05:03:30;14.60;99.90
25440;DHT22;13365;52.208;5.488;2023-03-26T05:06:00;14.50;99.90
25440;DHT22;13365;52.208;5.488;2023-03-26T05:08:26;14.60;99.90
25440;DHT22;13365;52.208;5.488;2023-03-26T05:10:56;14.60;99.90
25440;DHT22;13365;52.208;5.488;2023-03-26T05:13:22;14.60;99.90
25440;DHT22;13365;52.208;5.488;2023-03-26T05:15:48;14.40;99.90
25440;DHT22;13365;52.208;5.488;2023-03-26T05:18:14;14.30;99.90
25440;DHT22;13365;52.208;5.488;2023-03-26T05:20:40;14.10;99.90
25440;DHT22;13365;52.208;5.488;2023-03-26T05:23:06;14.00;99.90
25440;DHT22;13365;52.208;5.488;2023-03-26T05:25:32;14.20;99.90
25440;DHT22;13365;52.208;5.488;2023-03-26T05:27:59;14.30;99.90
25440;DHT22;13365;52.208;5.488;2023-03-26T05:30:26;14.40;99.90
25440;DHT22;13365;52.208;5.488;2023-03-26T05:32:51;14.40;99.90
25440;DHT22;13365;52.208;5.488;2023-03-26T05:35:17;14.50;99.90
25440;DHT22;13365;52.208;5.488;2023-03-26T05:37:44;14.60;99.90
25440;DHT22;13365;52.208;5.488;2023-03-26T05:40:11;14.60;99.90
25440;DHT22;13365;52.208;5.488;2023-03-26T05:42:38;14.60;99.90
25440;DHT22;13365;52.208;5.488;2023-03-26T05:45:06;14.50;99.90
25440;DHT22;13365;52.208;5.488;2023-03-26T05:47:32;14.50;99.90
25440;DHT22;13365;52.208;5.488;2023-03-26T05:49:58;14.50;99.90
25440;DHT22;13365;52.208;5.488;2023-03-26T05:52:24;14.50;99.90
25440;DHT22;13365;52.208;5.488;2023-03-26T05:54:50;14.40;99.90
25440;DHT22;13365;52.208;5.488;2023-03-26T05:57:15;14.50;99.90
25440;DHT22;13365;52.208;5.488;2023-03-26T05:59:42;14.60;99.90
25440;DHT22;13365;52.208;5.488;2023-03-26T06:02:09;14.70;99.90
25440;DHT22;13365;52.208;5.488;2023-03-26T06:04:35;14.70;99.90
25440;DHT22;13365;52.208;5.488;2023-03-26T06:07:07;14.70;99.90
25440;DHT22;13365;52.208;5.488;2023-03-26T06:09:37;14.70;99.90
25440;DHT22;13365;52.208;5.488;2023-03-26T06:12:04;14.80;99.90
25440;DHT22;13365;52.208;5.488;2023-03-26T06:14:30;14.80;99.90
25440;DHT22;13365;52.208;5.488;2023-03-26T06:16:56;14.80;99.90
25440;DHT22;13365;52.208;5.488;2023-03-26T06:19:21;14.80;99.90
25440;DHT22;13365;52.208;5.488;2023-03-26T06:21:47;14.80;99.90
25440;DHT22;13365;52.208;5.488;2023-03-26T06:24:12;14.70;99.90
25440;DHT22;13365;52.208;5.488;2023-03-26T06:26:38;14.70;99.90
25440;DHT22;13365;52.208;5.488;2023-03-26T06:29:04;14.30;99.90
25440;DHT22;13365;52.208;5.488;2023-03-26T06:31:30;14.00;99.90
25440;DHT22;13365;52.208;5.488;2023-03-26T06:33:55;13.80;99.90
25440;DHT22;13365;52.208;5.488;2023-03-26T06:36:21;13.50;99.90
25440;DHT22;13365;52.208;5.488;2023-03-26T06:38:46;13.20;99.90
25440;DHT22;13365;52.208;5.488;2023-03-26T06:41:12;12.80;99.90
25440;DHT22;13365;52.208;5.488;2023-03-26T06:43:37;12.70;99.90
25440;DHT22;13365;52.208;5.488;2023-03-26T06:46:04;12.90;99.90
25440;DHT22;13365;52.208;5.488;2023-03-26T06:48:30;12.80;99.90
25440;DHT22;13365;52.208;5.488;2023-03-26T06:50:56;12.80;99.90
25440;DHT22;13365;52.208;5.488;2023-03-26T06:53:21;12.80;99.90
25440;DHT22;13365;52.208;5.488;2023-03-26T06:55:48;12.70;99.90
25440;DHT22;13365;52.208;5.488;2023-03-26T06:58:14;12.50;99.90
25440;DHT22;13365;52.208;5.488;2023-03-26T07:00:41;12.30;99.90
25440;DHT22;13365;52.208;5.488;2023-03-26T07:03:06;12.30;99.90
25440;DHT22;13365;52.208;5.488;2023-03-26T07:05:32;12.30;99.90
25440;DHT22;13365;52.208;5.488;2023-03-26T07:07:58;12.30;99.90
25440;DHT22;13365;52.208;5.488;2023-03-26T07:10:24;12.10;99.90
25440;DHT22;13365;52.208;5.488;2023-03-26T07:12:49;12.00;99.90
25440;DHT22;13365;52.208;5.488;2023-03-26T07:15:15;12.10;99.90
25440;DHT22;13365;52.208;5.488;2023-03-26T07:17:40;12.30;99.90
25440;DHT22;13365;52.208;5.488;2023-03-26T07:20:07;12.50;99.90
25440;DHT22;13365;52.208;5.488;2023-03-26T07:22:33;12.70;99.90
25440;DHT22;13365;52.208;5.488;2023-03-26T07:24:59;12.60;99.90
25440;DHT22;13365;52.208;5.488;2023-03-26T07:30:27;12.40;99.90
25440;DHT22;13365;52.208;5.488;2023-03-26T07:33:02;11.90;99.90
25440;DHT22;13365;52.208;5.488;2023-03-26T07:35:54;11.80;99.90
25440;DHT22;13365;52.208;5.488;2023-03-26T07:41:50;11.90;99.90
25440;DHT22;13365;52.208;5.488;2023-03-26T07:44:43;11.70;99.90
25440;DHT22;13365;52.208;5.488;2023-03-26T07:47:23;11.50;99.90
25440;DHT22;13365;52.208;5.488;2023-03-26T07:49:52;11.40;99.90
25440;DHT22;13365;52.208;5.488;2023-03-26T07:52:18;11.30;99.90
25440;DHT22;13365;52.208;5.488;2023-03-26T07:54:44;11.30;99.90
25440;DHT22;13365;52.208;5.488;2023-03-26T08:02:41;11.70;99.90
25440;DHT22;13365;52.208;5.488;2023-03-26T08:05:27;11.60;99.90
25440;DHT22;13365;52.208;5.488;2023-03-26T08:16:53;11.30;99.90
25440;DHT22;13365;52.208;5.488;2023-03-26T08:21:52;11.30;99.90
25440;DHT22;13365;52.208;5.488;2023-03-26T08:24:30;11.50;99.90
25440;DHT22;13365;52.208;5.488;2023-03-26T08:29:50;11.50;99.90
25440;DHT22;13365;52.208;5.488;2023-03-26T08:32:19;11.30;99.90
25440;DHT22;13365;52.208;5.488;2023-03-26T08:34:45;11.40;99.90
25440;DHT22;13365;52.208;5.488;2023-03-26T08:37:11;11.50;99.90
25440;DHT22;13365;52.208;5.488;2023-03-26T08:39:37;11.40;99.90
25440;DHT22;13365;52.208;5.488;2023-03-26T08:42:18;11.40;99.90
25440;DHT22;13365;52.208;5.488;2023-03-26T08:50:02;11.20;99.90
25440;DHT22;13365;52.208;5.488;2023-03-26T08:52:55;11.30;99.90
25440;DHT22;13365;52.208;5.488;2023-03-26T09:01:21;10.70;99.90
25440;DHT22;13365;52.208;5.488;2023-03-26T09:13:27;10.90;99.90
25440;DHT22;13365;52.208;5.488;2023-03-26T09:22:06;10.80;99.90
25440;DHT22;13365;52.208;5.488;2023-03-26T09:25:08;10.80;99.90
25440;DHT22;13365;52.208;5.488;2023-03-26T09:28:05;10.90;99.90
25440;DHT22;13365;52.208;5.488;2023-03-26T09:38:44;10.80;99.90
25440;DHT22;13365;52.208;5.488;2023-03-26T09:41:34;10.80;99.90
25440;DHT22;13365;52.208;5.488;2023-03-26T09:44:23;10.80;99.90
25440;DHT22;13365;52.208;5.488;2023-03-26T09:55:17;11.00;99.90
25440;DHT22;13365;52.208;5.488;2023-03-26T10:00:20;11.10;99.90
25440;DHT22;13365;52.208;5.488;2023-03-26T10:08:40;11.00;99.90
25440;DHT22;13365;52.208;5.488;2023-03-26T10:11:30;11.00;99.90
25440;DHT22;13365;52.208;5.488;2023-03-26T10:19:42;10.80;99.90
25440;DHT22;13365;52.208;5.488;2023-03-26T10:22:26;10.60;99.90
25440;DHT22;13365;52.208;5.488;2023-03-26T10:25:19;10.60;99.90
25440;DHT22;13365;52.208;5.488;2023-03-26T10:28:10;10.40;99.90
25440;DHT22;13365;52.208;5.488;2023-03-26T10:31:16;10.20;99.90
25440;DHT22;13365;52.208;5.488;2023-03-26T10:36:41;10.00;99.90
25440;DHT22;13365;52.208;5.488;2023-03-26T10:44:46;10.10;99.90
25440;DHT22;13365;52.208;5.488;2023-03-26T10:53:00;10.00;99.90
25440;DHT22;13365;52.208;5.488;2023-03-26T10:55:36;9.90;99.90
25440;DHT22;13365;52.208;5.488;2023-03-26T10:58:17;9.80;99.90
25440;DHT22;13365;52.208;5.488;2023-03-26T11:00:53;10.00;99.90
25440;DHT22;13365;52.208;5.488;2023-03-26T11:08:38;10.40;99.90
25440;DHT22;13365;52.208;5.488;2023-03-26T11:14:19;10.70;99.90
25440;DHT22;13365;52.208;5.488;2023-03-26T11:19:47;10.10;99.90
25440;DHT22;13365;52.208;5.488;2023-03-26T11:22:25;9.90;99.90
25440;DHT22;13365;52.208;5.488;2023-03-26T11:25:25;9.80;99.90
25440;DHT22;13365;52.208;5.488;2023-03-26T11:33:14;10.20;99.90
25440;DHT22;13365;52.208;5.488;2023-03-26T11:35:44;10.20;99.90
25440;DHT22;13365;52.208;5.488;2023-03-26T11:40:49;10.10;99.90
25440;DHT22;13365;52.208;5.488;2023-03-26T11:43:21;10.20;99.90
25440;DHT22;13365;52.208;5.488;2023-03-26T11:45:49;10.40;99.90
25440;DHT22;13365;52.208;5.488;2023-03-26T11:48:29;10.60;99.90
25440;DHT22;13365;52.208;5.488;2023-03-26T11:51:25;10.70;99.90
25440;DHT22;13365;52.208;5.488;2023-03-26T11:53:52;10.70;99.90
25440;DHT22;13365;52.208;5.488;2023-03-26T12:01:16;11.60;99.90
25440;DHT22;13365;52.208;5.488;2023-03-26T12:03:42;11.80;99.90
25440;DHT22;13365;52.208;5.488;2023-03-26T12:06:22;12.00;99.90
25440;DHT22;13365;52.208;5.488;2023-03-26T12:08:50;11.90;99.90
25440;DHT22;13365;52.208;5.488;2023-03-26T12:11:17;12.00;99.90
25440;DHT22;13365;52.208;5.488;2023-03-26T12:13:54;12.00;99.90
25440;DHT22;13365;52.208;5.488;2023-03-26T12:16:22;12.10;99.90
25440;DHT22;13365;52.208;5.488;2023-03-26T12:19:17;12.30;99.90
25440;DHT22;13365;52.208;5.488;2023-03-26T12:21:46;12.30;99.90
25440;DHT22;13365;52.208;5.488;2023-03-26T12:26:59;12.00;99.90
25440;DHT22;13365;52.208;5.488;2023-03-26T12:29:27;12.20;99.90
25440;DHT22;13365;52.208;5.488;2023-03-26T12:32:04;12.00;99.90
25440;DHT22;13365;52.208;5.488;2023-03-26T12:34:35;12.20;99.90
25440;DHT22;13365;52.208;5.488;2023-03-26T12:37:03;12.20;99.90
25440;DHT22;13365;52.208;5.488;2023-03-26T12:41:59;12.10;99.90
25440;DHT22;13365;52.208;5.488;2023-03-26T12:44:45;12.10;99.90
25440;DHT22;13365;52.208;5.488;2023-03-26T12:47:19;12.30;99.90
25440;DHT22;13365;52.208;5.488;2023-03-26T12:49:48;12.30;99.90
25440;DHT22;13365;52.208;5.488;2023-03-26T12:57:24;12.40;99.90
25440;DHT22;13365;52.208;5.488;2023-03-26T13:00:48;12.70;99.90
25440;DHT22;13365;52.208;5.488;2023-03-26T13:03:27;12.80;99.60
25440;DHT22;13365;52.208;5.488;2023-03-26T13:06:17;12.50;99.70
25440;DHT22;13365;52.208;5.488;2023-03-26T13:14:39;12.40;99.00
25440;DHT22;13365;52.208;5.488;2023-03-26T13:20:03;11.80;99.90
25440;DHT22;13365;52.208;5.488;2023-03-26T13:25:53;11.50;99.90
25440;DHT22;13365;52.208;5.488;2023-03-26T13:28:49;11.60;99.90
25440;DHT22;13365;52.208;5.488;2023-03-26T13:31:38;11.80;99.90
25440;DHT22;13365;52.208;5.488;2023-03-26T13:34:17;12.20;99.40
25440;DHT22;13365;52.208;5.488;2023-03-26T13:37:09;12.40;98.40
25440;DHT22;13365;52.208;5.488;2023-03-26T13:47:41;11.70;99.90
25440;DHT22;13365;52.208;5.488;2023-03-26T13:52:58;11.80;99.90
25440;DHT22;13365;52.208;5.488;2023-03-26T13:55:49;12.40;98.70
25440;DHT22;13365;52.208;5.488;2023-03-26T13:58:23;12.20;98.40
25440;DHT22;13365;52.208;5.488;2023-03-26T14:04:07;12.10;98.90
25440;DHT22;13365;52.208;5.488;2023-03-26T14:06:58;11.80;98.00
25440;DHT22;13365;52.208;5.488;2023-03-26T14:10:11;11.80;98.40
25440;DHT22;13365;52.208;5.488;2023-03-26T14:15:12;11.70;98.10
25440;DHT22;13365;52.208;5.488;2023-03-26T14:17:40;11.70;98.10
25440;DHT22;13365;52.208;5.488;2023-03-26T14:20:55;11.60;97.60
25440;DHT22;13365;52.208;5.488;2023-03-26T14:25:53;11.90;97.10
25440;DHT22;13365;52.208;5.488;2023-03-26T14:33:57;11.60;96.30
25440;DHT22;13365;52.208;5.488;2023-03-26T14:48:34;11.60;95.00
25440;DHT22;13365;52.208;5.488;2023-03-26T14:53:32;11.60;95.00
25440;DHT22;13365;52.208;5.488;2023-03-26T15:01:23;11.10;95.20
25440;DHT22;13365;52.208;5.488;2023-03-26T15:09:25;11.10;95.70
25440;DHT22;13365;52.208;5.488;2023-03-26T15:12:28;11.50;94.70
25440;DHT22;13365;52.208;5.488;2023-03-26T15:15:00;11.80;94.30
25440;DHT22;13365;52.208;5.488;2023-03-26T15:28:20;11.60;93.60
25440;DHT22;13365;52.208;5.488;2023-03-26T15:44:28;11.10;93.40
25440;DHT22;13365;52.208;5.488;2023-03-26T15:49:54;11.00;92.80
25440;DHT22;13365;52.208;5.488;2023-03-26T15:52:38;11.00;93.10
25440;DHT22;13365;52.208;5.488;2023-03-26T15:55:21;11.00;92.90
25440;DHT22;13365;52.208;5.488;2023-03-26T15:58:06;11.00;92.70
25440;DHT22;13365;52.208;5.488;2023-03-26T16:00:34;11.00;92.20
25440;DHT22;13365;52.208;5.488;2023-03-26T16:11:02;10.40;91.80
25440;DHT22;13365;52.208;5.488;2023-03-26T16:13:35;10.30;92.30
25440;DHT22;13365;52.208;5.488;2023-03-26T16:18:40;11.00;91.60
25440;DHT22;13365;52.208;5.488;2023-03-26T16:21:33;10.60;91.70
25440;DHT22;13365;52.208;5.488;2023-03-26T16:32:14;10.30;92.50
25440;DHT22;13365;52.208;5.488;2023-03-26T16:48:08;10.40;91.00
25440;DHT22;13365;52.208;5.488;2023-03-26T16:51:05;10.60;90.70
25440;DHT22;13365;52.208;5.488;2023-03-26T16:53:36;10.50;90.30
25440;DHT22;13365;52.208;5.488;2023-03-26T17:01:46;10.20;88.10
25440;DHT22;13365;52.208;5.488;2023-03-26T17:04:18;10.20;88.30
25440;DHT22;13365;52.208;5.488;2023-03-26T17:06:59;10.00;88.00
25440;DHT22;13365;52.208;5.488;2023-03-26T17:18:06;10.30;85.60
25440;DHT22;13365;52.208;5.488;2023-03-26T17:21:07;10.20;86.70
25440;DHT22;13365;52.208;5.488;2023-03-26T17:32:05;9.60;90.10
25440;DHT22;13365;52.208;5.488;2023-03-26T17:34:58;9.80;89.80
25440;DHT22;13365;52.208;5.488;2023-03-26T17:37:34;9.70;90.00
25440;DHT22;13365;52.208;5.488;2023-03-26T17:42:34;9.30;86.70
25440;DHT22;13365;52.208;5.488;2023-03-26T17:45:08;9.40;85.60
25440;DHT22;13365;52.208;5.488;2023-03-26T17:47:47;9.30;85.40
25440;DHT22;13365;52.208;5.488;2023-03-26T17:50:24;9.20;85.80
25440;DHT22;13365;52.208;5.488;2023-03-26T17:53:20;9.00;87.70
25440;DHT22;13365;52.208;5.488;2023-03-26T17:55:47;9.20;88.10
25440;DHT22;13365;52.208;5.488;2023-03-26T17:58:32;9.60;87.80
25440;DHT22;13365;52.208;5.488;2023-03-26T18:01:15;9.60;87.80
25440;DHT22;13365;52.208;5.488;2023-03-26T18:03:51;9.80;87.30
25440;DHT22;13365;52.208;5.488;2023-03-26T18:09:14;9.70;86.00
25440;DHT22;13365;52.208;5.488;2023-03-26T18:11:51;9.60;86.20
25440;DHT22;13365;52.208;5.488;2023-03-26T18:16:58;9.80;87.50
25440;DHT22;13365;52.208;5.488;2023-03-26T18:19:25;9.80;87.30
25440;DHT22;13365;52.208;5.488;2023-03-26T18:21:56;10.00;86.10
25440;DHT22;13365;52.208;5.488;2023-03-26T18:24:38;10.30;85.60
25440;DHT22;13365;52.208;5.488;2023-03-26T18:27:17;10.10;85.60
25440;DHT22;13365;52.208;5.488;2023-03-26T18:32:22;9.40;88.40
25440;DHT22;13365;52.208;5.488;2023-03-26T18:34:55;9.10;90.10
25440;DHT22;13365;52.208;5.488;2023-03-26T18:37:30;9.10;90.60
25440;DHT22;13365;52.208;5.488;2023-03-26T18:40:08;9.10;90.60
25440;DHT22;13365;52.208;5.488;2023-03-26T18:42:37;9.20;91.00
25440;DHT22;13365;52.208;5.488;2023-03-26T18:45:12;9.20;90.90
25440;DHT22;13365;52.208;5.488;2023-03-26T18:47:40;9.10;90.80
25440;DHT22;13365;52.208;5.488;2023-03-26T18:50:06;9.10;91.20
25440;DHT22;13365;52.208;5.488;2023-03-26T18:52:32;9.30;91.00
25440;DHT22;13365;52.208;5.488;2023-03-26T18:54:58;9.20;91.10
25440;DHT22;13365;52.208;5.488;2023-03-26T18:57:28;9.20;91.50
25440;DHT22;13365;52.208;5.488;2023-03-26T18:59:55;9.20;91.20
25440;DHT22;13365;52.208;5.488;2023-03-26T19:02:22;9.40;91.30
25440;DHT22;13365;52.208;5.488;2023-03-26T19:04:50;9.20;91.00
25440;DHT22;13365;52.208;5.488;2023-03-26T19:07:22;9.30;91.10
25440;DHT22;13365;52.208;5.488;2023-03-26T19:09:49;9.20;91.30
25440;DHT22;13365;52.208;5.488;2023-03-26T19:12:20;9.20;91.30
25440;DHT22;13365;52.208;5.488;2023-03-26T19:17:20;9.10;91.00
25440;DHT22;13365;52.208;5.488;2023-03-26T19:19:48;9.20;90.60
25440;DHT22;13365;52.208;5.488;2023-03-26T19:22:15;9.00;90.60
25440;DHT22;13365;52.208;5.488;2023-03-26T19:24:41;8.90;91.40
25440;DHT22;13365;52.208;5.488;2023-03-26T19:27:07;9.00;90.80
25440;DHT22;13365;52.208;5.488;2023-03-26T19:29:35;9.20;90.80
25440;DHT22;13365;52.208;5.488;2023-03-26T19:32:14;9.10;90.50
25440;DHT22;13365;52.208;5.488;2023-03-26T19:34:40;8.90;90.60
25440;DHT22;13365;52.208;5.488;2023-03-26T19:37:23;9.10;90.50
25440;DHT22;13365;52.208;5.488;2023-03-26T19:39:54;9.10;90.30
25440;DHT22;13365;52.208;5.488;2023-03-26T19:44:49;9.10;90.20
25440;DHT22;13365;52.208;5.488;2023-03-26T19:47:25;9.10;89.70
25440;DHT22;13365;52.208;5.488;2023-03-26T19:49:56;9.10;90.00
25440;DHT22;13365;52.208;5.488;2023-03-26T19:52:35;9.00;90.00
25440;DHT22;13365;52.208;5.488;2023-03-26T19:57:36;9.20;90.00
25440;DHT22;13365;52.208;5.488;2023-03-26T20:00:04;9.30;89.00
25440;DHT22;13365;52.208;5.488;2023-03-26T20:02:38;9.20;88.60
25440;DHT22;13365;52.208;5.488;2023-03-26T20:05:04;9.10;88.90
25440;DHT22;13365;52.208;5.488;2023-03-26T20:07:29;9.20;89.30
25440;DHT22;13365;52.208;5.488;2023-03-26T20:09:55;9.30;88.60
25440;DHT22;13365;52.208;5.488;2023-03-26T20:12:21;9.40;88.30
25440;DHT22;13365;52.208;5.488;2023-03-26T20:14:47;9.60;88.00
25440;DHT22;13365;52.208;5.488;2023-03-26T20:17:15;9.70;87.70
25440;DHT22;13365;52.208;5.488;2023-03-26T20:19:43;9.70;87.00
25440;DHT22;13365;52.208;5.488;2023-03-26T20:22:16;9.70;87.90
25440;DHT22;13365;52.208;5.488;2023-03-26T20:24:45;9.60;87.70
25440;DHT22;13365;52.208;5.488;2023-03-26T20:27:12;9.60;87.70
25440;DHT22;13365;52.208;5.488;2023-03-26T20:29:40;9.40;88.90
25440;DHT22;13365;52.208;5.488;2023-03-26T20:32:19;9.60;89.00
25440;DHT22;13365;52.208;5.488;2023-03-26T20:34:47;9.70;88.10
25440;DHT22;13365;52.208;5.488;2023-03-26T20:37:14;9.40;88.10
25440;DHT22;13365;52.208;5.488;2023-03-26T20:39:40;9.20;89.30
25440;DHT22;13365;52.208;5.488;2023-03-26T20:42:06;9.30;88.90
25440;DHT22;13365;52.208;5.488;2023-03-26T20:44:33;9.40;88.60
25440;DHT22;13365;52.208;5.488;2023-03-26T20:46:58;9.30;88.80
25440;DHT22;13365;52.208;5.488;2023-03-26T20:49:24;9.20;89.40
25440;DHT22;13365;52.208;5.488;2023-03-26T20:51:53;9.20;89.70
25440;DHT22;13365;52.208;5.488;2023-03-26T20:54:22;9.20;89.00
25440;DHT22;13365;52.208;5.488;2023-03-26T20:56:49;9.20;89.30
25440;DHT22;13365;52.208;5.488;2023-03-26T20:59:25;9.40;89.30
25440;DHT22;13365;52.208;5.488;2023-03-26T21:01:52;9.30;88.40
25440;DHT22;13365;52.208;5.488;2023-03-26T21:04:19;9.30;89.00
25440;DHT22;13365;52.208;5.488;2023-03-26T21:06:45;9.40;88.80
25440;DHT22;13365;52.208;5.488;2023-03-26T21:09:13;9.50;88.80
25440;DHT22;13365;52.208;5.488;2023-03-26T21:14:37;9.70;88.30
25440;DHT22;13365;52.208;5.488;2023-03-26T21:17:10;9.60;88.00
25440;DHT22;13365;52.208;5.488;2023-03-26T21:19:37;9.70;88.10